createdAt,value
2023-05-13T00:00:42.211Z,15.42
2023-05-13T00:03:48.339Z,15.51
2023-05-13T00:06:53.742Z,15.35
2023-05-13T00:09:59.898Z,15.28
2023-05-13T00:12:58.828Z,15.26
2023-05-13T00:16:04.170Z,15.33
2023-05-13T00:19:03.173Z,15.24
2023-05-13T00:22:09.346Z,14.97
2023-05-13T00:25:15.256Z,15.09
2023-05-13T00:28:22.113Z,15.06
2023-05-13T00:31:28.044Z,14.88
2023-05-13T00:34:32.998Z,15.10
2023-05-13T00:37:39.610Z,15.15
2023-05-13T00:40:46.142Z,14.79
2023-05-13T00:43:52.164Z,14.85
2023-05-13T00:46:58.090Z,14.83
2023-05-13T00:50:04.606Z,14.78
2023-05-13T00:53:09.543Z,14.67
2023-05-13T00:56:14.543Z,14.67
2023-05-13T00:59:20.105Z,14.66
2023-05-13T01:02:52.229Z,14.55
2023-05-13T01:06:18.544Z,14.41
2023-05-13T01:09:31.489Z,14.53
2023-05-13T01:12:52.052Z,14.59
2023-05-13T01:15:52.090Z,14.67
2023-05-13T01:18:43.955Z,14.71
2023-05-13T01:21:37.416Z,14.66
2023-05-13T01:24:30.366Z,14.64
2023-05-13T01:27:35.271Z,14.66
2023-05-13T01:30:41.702Z,14.56
2023-05-13T01:33:47.579Z,14.52
2023-05-13T01:36:53.799Z,14.68
2023-05-13T01:40:00.028Z,14.57
2023-05-13T01:43:05.572Z,14.44
2023-05-13T01:46:06.323Z,14.30
2023-05-13T01:48:52.231Z,14.35
2023-05-13T01:51:45.191Z,14.34
2023-05-13T01:54:37.558Z,14.31
2023-05-13T01:57:44.770Z,14.33
2023-05-13T02:00:52.106Z,14.30
2023-05-13T02:03:57.973Z,14.47
2023-05-13T02:07:04.067Z,14.54
2023-05-13T02:10:08.878Z,14.64
2023-05-13T02:13:15.062Z,14.50
2023-05-13T02:16:21.898Z,14.48
2023-05-13T02:19:27.431Z,14.41
2023-05-13T02:22:32.690Z,14.56
2023-05-13T02:25:39.183Z,14.82
2023-05-13T02:28:45.274Z,15.00
2023-05-13T02:31:44.713Z,15.33
2023-05-13T02:34:51.585Z,15.44
2023-05-13T02:37:58.320Z,15.59
2023-05-13T02:41:03.971Z,15.85
2023-05-13T02:44:08.818Z,16.03
2023-05-13T02:47:14.937Z,15.90
2023-05-13T02:50:22.373Z,16.35
2023-05-13T02:53:28.270Z,16.43
2023-05-13T02:56:35.469Z,16.85
2023-05-13T02:59:40.745Z,17.06
2023-05-13T03:02:46.665Z,17.50
2023-05-13T03:05:52.396Z,17.69
2023-05-13T03:08:58.302Z,17.90
2023-05-13T03:12:05.566Z,18.30
2023-05-13T03:15:10.630Z,18.62
2023-05-13T03:18:16.633Z,18.89
2023-05-13T03:21:22.341Z,19.09
2023-05-13T03:24:27.882Z,19.44
2023-05-13T03:27:34.516Z,19.68
2023-05-13T03:30:39.490Z,20.15
2023-05-13T03:33:48.327Z,20.27
2023-05-13T03:36:54.623Z,20.18
2023-05-13T03:40:00.500Z,20.49
2023-05-13T03:43:07.231Z,20.63
2023-05-13T03:46:14.149Z,21.30
2023-05-13T03:49:20.629Z,21.46
2023-05-13T03:52:28.655Z,21.38
2023-05-13T03:55:34.423Z,21.48
2023-05-13T03:58:41.247Z,21.17
2023-05-13T04:01:46.505Z,21.42
2023-05-13T04:04:53.587Z,21.97
2023-05-13T04:07:59.404Z,22.05
2023-05-13T04:11:04.799Z,22.36
2023-05-13T04:14:10.791Z,22.64
2023-05-13T04:17:15.566Z,22.44
2023-05-13T04:20:23.722Z,22.98
2023-05-13T04:23:29.161Z,23.18
2023-05-13T04:26:28.132Z,23.26
2023-05-13T04:29:33.823Z,23.35
2023-05-13T04:32:38.813Z,23.18
2023-05-13T04:35:45.406Z,23.27
2023-05-13T04:38:50.195Z,23.48
2023-05-13T04:41:57.190Z,23.46
2023-05-13T04:45:04.496Z,23.16
2023-05-13T04:48:10.362Z,23.21
2023-05-13T04:51:16.790Z,21.76
2023-05-13T04:54:23.557Z,21.80
2023-05-13T04:57:27.997Z,22.05
2023-05-13T05:00:33.471Z,22.06
2023-05-13T05:03:38.960Z,22.12
2023-05-13T05:06:43.821Z,22.30
2023-05-13T05:09:50.509Z,22.63
2023-05-13T05:12:57.186Z,22.83
2023-05-13T05:16:03.048Z,22.89
2023-05-13T05:19:08.317Z,23.04
2023-05-13T05:22:06.867Z,23.02
2023-05-13T05:24:52.010Z,23.17
2023-05-13T05:27:44.261Z,23.23
2023-05-13T05:30:37.415Z,23.46
2023-05-13T05:33:45.564Z,23.68
2023-05-13T05:36:50.894Z,23.81
2023-05-13T05:39:56.845Z,23.76
2023-05-13T05:43:04.098Z,23.78
2023-05-13T05:46:10.134Z,23.73
2023-05-13T05:49:15.663Z,24.43
2023-05-13T05:52:23.464Z,24.73
2023-05-13T05:55:29.168Z,24.84
2023-05-13T05:58:35.294Z,24.78
2023-05-13T06:01:43.309Z,24.97
2023-05-13T06:04:48.585Z,24.54
2023-05-13T06:07:55.753Z,24.98
2023-05-13T06:11:03.488Z,24.58
2023-05-13T06:14:09.097Z,24.90
2023-05-13T06:17:08.914Z,25.30
2023-05-13T06:20:08.482Z,25.36
2023-05-13T06:23:14.216Z,25.42
2023-05-13T06:26:20.199Z,25.56
2023-05-13T06:29:25.633Z,25.51
2023-05-13T06:32:30.465Z,25.63
2023-05-13T06:35:36.391Z,25.62
2023-05-13T06:38:41.525Z,25.72
2023-05-13T06:41:46.868Z,25.83
2023-05-13T06:44:55.137Z,26.06
2023-05-13T06:48:02.576Z,26.17
2023-05-13T06:51:09.411Z,26.12
2023-05-13T06:54:14.498Z,26.07
2023-05-13T06:57:21.905Z,25.61
2023-05-13T07:00:29.924Z,26.12
2023-05-13T07:03:34.911Z,26.18
2023-05-13T07:06:39.675Z,26.25
2023-05-13T07:09:45.919Z,25.90
2023-05-13T07:12:51.578Z,26.27
2023-05-13T07:15:57.745Z,26.55
2023-05-13T07:19:02.900Z,26.59
2023-05-13T07:22:08.312Z,26.59
2023-05-13T07:25:14.029Z,26.77
2023-05-13T07:28:19.776Z,26.94
2023-05-13T07:31:25.504Z,26.99
2023-05-13T07:34:30.673Z,27.19
2023-05-13T07:37:37.021Z,27.44
2023-05-13T07:40:43.413Z,27.47
2023-05-13T07:43:48.913Z,26.98
2023-05-13T07:46:55.462Z,27.05
2023-05-13T07:49:54.469Z,27.17
2023-05-13T07:53:01.015Z,27.38
2023-05-13T07:56:06.683Z,27.50
2023-05-13T07:59:13.264Z,27.70
2023-05-13T08:02:18.588Z,27.21
2023-05-13T08:05:25.488Z,27.21
2023-05-13T08:08:30.501Z,27.30
2023-05-13T08:11:36.829Z,27.76
2023-05-13T08:14:42.447Z,27.21
2023-05-13T08:17:47.834Z,27.17
2023-05-13T08:20:53.611Z,27.33
2023-05-13T08:24:00.406Z,27.63
2023-05-13T08:27:05.116Z,27.49
2023-05-13T08:30:11.315Z,27.71
2023-05-13T08:33:18.003Z,27.57
2023-05-13T08:36:24.569Z,27.53
2023-05-13T08:39:29.733Z,27.59
2023-05-13T08:42:34.978Z,27.95
2023-05-13T08:45:40.526Z,28.14
2023-05-13T08:48:46.278Z,28.09
2023-05-13T08:51:51.158Z,27.82
2023-05-13T08:54:56.683Z,28.12
2023-05-13T08:57:56.037Z,28.10
2023-05-13T09:01:03.262Z,28.34
2023-05-13T09:04:18.522Z,28.30
2023-05-13T09:07:24.419Z,28.05
2023-05-13T09:10:30.373Z,28.17
2023-05-13T09:13:36.109Z,28.29
2023-05-13T09:16:43.024Z,28.27
2023-05-13T09:19:49.541Z,28.55
2023-05-13T09:23:05.804Z,28.39
2023-05-13T09:26:11.300Z,28.71
2023-05-13T09:29:39.757Z,28.96
2023-05-13T09:32:47.322Z,28.66
2023-05-13T09:35:50.822Z,28.33
2023-05-13T09:38:45.774Z,29.00
2023-05-13T09:41:52.686Z,29.08
2023-05-13T09:45:00.276Z,28.94
2023-05-13T09:48:05.992Z,28.84
2023-05-13T09:51:13.536Z,29.00
2023-05-13T09:54:21.763Z,28.97
2023-05-13T09:57:28.753Z,28.97
2023-05-13T10:00:35.956Z,28.94
2023-05-13T10:03:43.016Z,29.07
2023-05-13T10:06:48.726Z,29.30
2023-05-13T10:09:54.464Z,29.34
2023-05-13T10:13:00.634Z,29.48
2023-05-13T10:16:14.515Z,29.60
2023-05-13T10:19:20.728Z,29.19
2023-05-13T10:22:26.110Z,29.20
2023-05-13T10:25:39.048Z,29.03
2023-05-13T10:28:44.470Z,29.03
2023-05-13T10:31:49.732Z,29.07
2023-05-13T10:34:56.042Z,28.68
2023-05-13T10:38:29.804Z,29.18
2023-05-13T10:42:00.739Z,29.16
2023-05-13T10:45:08.601Z,29.30
2023-05-13T10:48:22.092Z,29.67
2023-05-13T10:51:31.905Z,29.39
2023-05-13T10:54:38.548Z,29.20
2023-05-13T10:57:50.289Z,29.09
2023-05-13T11:00:59.730Z,28.92
2023-05-13T11:04:10.289Z,28.13
2023-05-13T11:07:18.296Z,28.85
2023-05-13T11:10:40.019Z,29.24
2023-05-13T11:13:52.094Z,29.01
2023-05-13T11:17:05.198Z,28.99
2023-05-13T11:20:10.575Z,28.92
2023-05-13T11:23:16.013Z,28.96
2023-05-13T11:26:28.724Z,28.72
2023-05-13T11:29:51.464Z,29.21
2023-05-13T11:33:14.452Z,28.98
2023-05-13T11:36:20.002Z,28.82
2023-05-13T11:39:33.699Z,29.00
2023-05-13T11:42:40.052Z,29.05
2023-05-13T11:45:47.834Z,28.99
2023-05-13T11:48:55.420Z,29.08
2023-05-13T11:52:00.809Z,29.04
2023-05-13T11:55:07.192Z,28.43
2023-05-13T11:58:13.156Z,28.76
2023-05-13T12:01:19.044Z,28.50
2023-05-13T12:04:25.389Z,28.35
2023-05-13T12:07:40.914Z,27.92
2023-05-13T12:10:46.790Z,27.85
2023-05-13T12:13:52.560Z,27.99
2023-05-13T12:16:59.192Z,28.24
2023-05-13T12:20:26.544Z,28.45
2023-05-13T12:23:31.932Z,28.34
2023-05-13T12:26:29.848Z,28.62
2023-05-13T12:29:35.309Z,28.88
2023-05-13T12:32:41.302Z,28.95
2023-05-13T12:35:48.012Z,29.19
2023-05-13T12:38:53.445Z,29.40
2023-05-13T12:42:06.842Z,29.20
2023-05-13T12:45:12.838Z,29.30
2023-05-13T12:48:18.738Z,29.06
2023-05-13T12:51:24.671Z,28.58
2023-05-13T12:54:30.190Z,28.69
2023-05-13T12:57:31.075Z,28.57
2023-05-13T13:00:36.516Z,28.50
2023-05-13T13:03:42.431Z,28.73
2023-05-13T13:06:47.931Z,28.81
2023-05-13T13:09:54.143Z,29.02
2023-05-13T13:13:00.764Z,28.98
2023-05-13T13:16:06.923Z,28.94
2023-05-13T13:19:11.865Z,28.98
2023-05-13T13:22:17.300Z,28.97
2023-05-13T13:25:24.356Z,29.03
2023-05-13T13:28:31.214Z,28.84
2023-05-13T13:31:39.013Z,29.08
2023-05-13T13:34:44.475Z,29.02
2023-05-13T13:37:49.900Z,28.77
2023-05-13T13:40:57.352Z,29.01
2023-05-13T13:44:03.782Z,28.91
2023-05-13T13:47:09.905Z,28.92
2023-05-13T13:50:15.730Z,28.71
2023-05-13T13:53:21.605Z,28.76
2023-05-13T13:56:27.803Z,28.62
2023-05-13T13:59:26.687Z,28.71
2023-05-13T14:02:34.078Z,28.60
2023-05-13T14:05:39.802Z,28.66
2023-05-13T14:08:45.544Z,28.73
2023-05-13T14:11:45.396Z,28.85
2023-05-13T14:14:50.978Z,28.82
2023-05-13T14:17:57.028Z,28.58
2023-05-13T14:21:03.277Z,28.43
2023-05-13T14:24:08.829Z,28.38
2023-05-13T14:27:15.737Z,28.43
2023-05-13T14:30:22.251Z,28.36
2023-05-13T14:33:28.554Z,28.37
2023-05-13T14:36:34.285Z,28.12
2023-05-13T14:39:39.160Z,28.17
2023-05-13T14:42:37.101Z,28.31
2023-05-13T14:45:42.867Z,28.35
2023-05-13T14:48:41.817Z,28.42
2023-05-13T14:51:47.626Z,28.46
2023-05-13T14:54:47.460Z,28.51
2023-05-13T14:57:53.980Z,28.59
2023-05-13T15:01:00.558Z,28.31
2023-05-13T15:04:08.569Z,28.11
2023-05-13T15:07:15.217Z,28.19
2023-05-13T15:10:22.195Z,28.29
2023-05-13T15:13:31.565Z,28.12
2023-05-13T15:16:36.756Z,27.38
2023-05-13T15:19:42.677Z,27.82
2023-05-13T15:22:48.555Z,27.93
2023-05-13T15:25:47.946Z,27.74
2023-05-13T15:28:40.848Z,27.94
2023-05-13T15:31:47.521Z,27.97
2023-05-13T15:34:54.286Z,28.03
2023-05-13T15:38:00.622Z,28.06
2023-05-13T15:41:05.505Z,28.03
2023-05-13T15:44:11.906Z,27.98
2023-05-13T15:47:18.288Z,28.07
2023-05-13T15:50:25.441Z,27.65
2023-05-13T15:53:30.881Z,27.92
2023-05-13T15:56:37.869Z,27.69
2023-05-13T15:59:42.797Z,27.84
2023-05-13T16:02:45.973Z,27.99
2023-05-13T16:05:31.363Z,27.61
2023-05-13T16:08:23.673Z,27.59
2023-05-13T16:11:09.657Z,27.04
2023-05-13T16:14:02.905Z,27.32
2023-05-13T16:17:07.269Z,27.28
2023-05-13T16:20:13.685Z,27.17
2023-05-13T16:23:21.236Z,27.00
2023-05-13T16:26:28.370Z,26.96
2023-05-13T16:29:34.603Z,22.27
2023-05-13T16:32:41.699Z,20.90
2023-05-13T16:35:47.154Z,20.51
2023-05-13T16:38:54.812Z,20.48
2023-05-13T16:41:59.855Z,20.46
2023-05-13T16:45:06.095Z,20.32
2023-05-13T16:48:12.202Z,20.49
2023-05-13T16:51:18.720Z,20.31
2023-05-13T16:54:23.972Z,20.52
2023-05-13T16:57:30.499Z,20.51
2023-05-13T17:00:37.169Z,20.49
2023-05-13T17:03:43.617Z,20.29
2023-05-13T17:06:50.501Z,20.21
2023-05-13T17:09:56.450Z,20.11
2023-05-13T17:13:02.200Z,20.01
2023-05-13T17:16:08.719Z,19.98
2023-05-13T17:19:14.726Z,19.90
2023-05-13T17:22:19.796Z,19.76
2023-05-13T17:25:24.529Z,19.74
2023-05-13T17:28:29.990Z,19.64
2023-05-13T17:31:35.782Z,19.43
2023-05-13T17:34:41.014Z,19.33
2023-05-13T17:37:46.593Z,18.87
2023-05-13T17:40:52.920Z,18.48
2023-05-13T17:43:58.527Z,18.64
2023-05-13T17:47:04.637Z,18.37
2023-05-13T17:50:09.448Z,18.26
2023-05-13T17:53:15.167Z,18.17
2023-05-13T17:56:21.428Z,17.87
2023-05-13T17:59:27.228Z,17.69
2023-05-13T18:02:32.901Z,17.63
2023-05-13T18:05:39.829Z,17.35
2023-05-13T18:08:46.663Z,17.13
2023-05-13T18:11:51.999Z,16.95
2023-05-13T18:14:57.959Z,16.83
2023-05-13T18:18:04.408Z,16.81
2023-05-13T18:21:09.956Z,16.68
2023-05-13T18:24:15.545Z,16.59
2023-05-13T18:27:22.230Z,16.49
2023-05-13T18:30:31.030Z,16.42
2023-05-13T18:33:36.527Z,16.34
2023-05-13T18:36:42.944Z,16.24
2023-05-13T18:39:50.882Z,16.18
2023-05-13T18:42:49.417Z,15.97
2023-05-13T18:45:41.684Z,15.95
2023-05-13T18:48:47.679Z,15.60
2023-05-13T18:51:53.449Z,15.40
2023-05-13T18:54:59.316Z,15.11
2023-05-13T18:58:06.017Z,15.08
2023-05-13T19:01:13.376Z,15.02
2023-05-13T19:04:21.032Z,14.81
2023-05-13T19:07:27.622Z,14.66
2023-05-13T19:10:39.102Z,14.70
2023-05-13T19:16:48.439Z,14.49
2023-05-13T19:19:54.488Z,14.42
2023-05-13T19:23:00.272Z,14.31
2023-05-13T19:26:05.371Z,14.27
2023-05-13T19:29:11.568Z,14.30
2023-05-13T19:32:16.240Z,14.26
2023-05-13T19:35:23.585Z,14.28
2023-05-13T19:38:31.447Z,14.33
2023-05-13T19:41:37.248Z,14.16
2023-05-13T19:44:42.271Z,14.17
2023-05-13T19:47:48.959Z,14.12
2023-05-13T19:50:55.515Z,14.08
2023-05-13T19:54:01.325Z,14.22
2023-05-13T19:57:07.837Z,14.13
2023-05-13T20:00:13.274Z,14.14
2023-05-13T20:03:20.293Z,14.09
2023-05-13T20:06:26.651Z,14.16
2023-05-13T20:09:33.938Z,13.97
2023-05-13T20:12:39.815Z,13.86
2023-05-13T20:15:47.243Z,13.88
2023-05-13T20:18:53.222Z,13.72
2023-05-13T20:21:58.758Z,13.78
2023-05-13T20:25:08.183Z,13.61
2023-05-13T20:28:06.871Z,13.64
2023-05-13T20:30:53.604Z,13.47
2023-05-13T20:33:46.051Z,13.50
2023-05-13T20:36:51.830Z,13.44
2023-05-13T20:39:57.967Z,13.47
2023-05-13T20:43:02.747Z,13.52
2023-05-13T20:46:08.614Z,13.47
2023-05-13T20:49:14.629Z,13.54
2023-05-13T20:52:20.004Z,13.65
2023-05-13T20:55:27.694Z,13.64
2023-05-13T20:58:32.899Z,13.54
2023-05-13T21:01:40.561Z,13.44
2023-05-13T21:04:47.110Z,13.51
2023-05-13T21:07:52.707Z,13.43
2023-05-13T21:10:57.717Z,13.27
2023-05-13T21:14:03.489Z,13.36
2023-05-13T21:17:10.232Z,13.31
2023-05-13T21:20:15.923Z,13.33
2023-05-13T21:23:22.442Z,13.33
2023-05-13T21:26:29.322Z,13.35
2023-05-13T21:29:36.933Z,13.42
2023-05-13T21:32:41.904Z,13.38
2023-05-13T21:35:48.958Z,13.34
2023-05-13T21:38:55.663Z,13.29
2023-05-13T21:42:00.698Z,13.27
2023-05-13T21:45:06.201Z,13.29
2023-05-13T21:48:11.528Z,13.34
2023-05-13T21:51:17.160Z,13.38
2023-05-13T21:54:22.808Z,13.44
2023-05-13T21:57:29.198Z,13.69
2023-05-13T22:00:34.894Z,13.66
2023-05-13T22:03:40.021Z,13.78
2023-05-13T22:06:40.408Z,13.69
2023-05-13T22:09:32.679Z,13.78
2023-05-13T22:12:37.596Z,13.70
2023-05-13T22:15:43.627Z,13.77
2023-05-13T22:18:43.963Z,13.80
2023-05-13T22:21:49.593Z,13.68
2023-05-13T22:24:56.801Z,13.70
2023-05-13T22:28:02.455Z,13.79
2023-05-13T22:31:07.396Z,13.53
2023-05-13T22:34:13.115Z,13.60
2023-05-13T22:37:19.236Z,13.94
2023-05-13T22:40:25.680Z,13.87
2023-05-13T22:43:31.901Z,13.89
2023-05-13T22:46:37.669Z,13.71
2023-05-13T22:49:43.186Z,13.73
2023-05-13T22:52:49.379Z,13.61
2023-05-13T22:55:55.818Z,13.64
2023-05-13T22:59:01.257Z,13.80
2023-05-13T23:02:07.814Z,13.77
2023-05-13T23:05:14.573Z,13.65
2023-05-13T23:08:20.213Z,14.05
2023-05-13T23:11:26.092Z,13.78
2023-05-13T23:14:33.967Z,13.80
2023-05-13T23:17:39.611Z,13.72
2023-05-13T23:20:44.664Z,13.69
2023-05-13T23:23:51.402Z,13.93
2023-05-13T23:26:57.536Z,13.85
2023-05-13T23:30:02.624Z,13.79
2023-05-13T23:33:08.466Z,13.82
2023-05-13T23:36:13.949Z,13.78
2023-05-13T23:39:20.726Z,13.91
2023-05-13T23:42:25.762Z,14.08
2023-05-13T23:45:31.773Z,13.71
2023-05-13T23:48:38.283Z,13.85
2023-05-13T23:51:43.994Z,13.94
2023-05-13T23:54:50.342Z,14.07
2023-05-13T23:57:56.967Z,14.22
